Time;durP1;ratioP1;P1;durP2;ratioP2;P2;SDS_P1;SDS_P2;PMS_P1;PMS_P2;Temp;Humidity;BMP_temperature;BMP_pressure;BME280_temperature;BME280_humidity;BME280_pressure;Samples;Min_cycle;Max_cycle;Signal;HPM_P1;HPM_P2
2022/05/07 00:01:04;;;;;;;17.17;13.32;;;;;;;15.45;73.95;101766.94;4951212;28;20106;-66
2022/05/07 00:03:31;;;;;;;16.02;13.32;;;;;;;15.45;74.04;101764.28;4953413;28;20496;-70
2022/05/07 00:05:58;;;;;;;20.73;15.77;;;;;;;15.44;73.92;101754.66;4942342;28;20519;-70
2022/05/07 00:08:25;;;;;;;17.27;14.07;;;;;;;15.44;74.05;101754.66;4946886;28;20048;-69
2022/05/07 00:10:52;;;;;;;17.13;14.70;;;;;;;15.44;74.18;101748.50;4947984;29;20062;-61
2022/05/07 00:13:18;;;;;;;18.65;14.82;;;;;;;15.45;74.08;101748.41;4948333;29;20050;-61
2022/05/07 00:18:01;;;;;;;19.88;14.82;;;;;;;15.45;74.00;101742.25;4952013;28;20043;-71
2022/05/07 00:18:32;;;;;;;23.13;16.17;;;;;;;15.45;73.83;101747.56;4952943;29;20050;-62
2022/05/07 00:20:59;;;;;;;18.17;15.45;;;;;;;15.43;73.98;101742.38;4948138;28;20523;-62
2022/05/07 00:23:25;;;;;;;19.33;15.52;;;;;;;15.42;74.26;101737.19;4951925;29;20051;-70
2022/05/07 00:25:52;;;;;;;19.20;15.40;;;;;;;15.41;74.09;101738.94;4949041;28;20044;-63
2022/05/07 00:28:19;;;;;;;19.50;15.88;;;;;;;15.38;74.38;101739.16;4950751;28;20055;-65
2022/05/07 00:30:45;;;;;;;21.38;16.70;;;;;;;15.37;74.32;101733.97;4949448;28;20451;-63
2022/05/07 00:33:12;;;;;;;19.10;16.50;;;;;;;15.34;74.19;101733.19;4955556;28;20047;-70
2022/05/07 00:35:39;;;;;;;17.80;15.23;;;;;;;15.34;74.21;101733.19;4953481;28;20051;-70
2022/05/07 00:38:05;;;;;;;21.70;16.17;;;;;;;15.33;74.15;101723.56;4951758;28;20484;-69
2022/05/07 00:40:32;;;;;;;19.67;16.13;;;;;;;15.31;74.36;101722.81;4952277;28;20080;-65
2022/05/07 00:42:59;;;;;;;21.98;16.75;;;;;;;15.31;74.15;101722.81;4953411;28;20047;-61
2022/05/07 00:45:25;;;;;;;20.50;16.70;;;;;;;15.30;74.23;101721.09;4952537;28;20114;-62
2022/05/07 00:47:52;;;;;;;22.38;16.17;;;;;;;15.31;74.09;101712.25;4956944;28;20043;-70
2022/05/07 00:53:05;;;;;;;18.90;15.52;;;;;;;15.29;74.74;101710.63;4950746;29;20424;-65
2022/05/07 00:55:33;;;;;;;23.00;16.13;;;;;;;15.29;74.38;101714.13;4952617;28;20102;-70
2022/05/07 00:58:00;;;;;;;19.42;16.17;;;;;;;15.29;74.69;101700.88;4953793;28;20515;-70
2022/05/07 01:00:27;;;;;;;20.35;16.40;;;;;;;15.30;74.56;101709.66;4953351;28;20102;-70
2022/05/07 01:02:53;;;;;;;22.38;17.23;;;;;;;15.28;74.56;101709.75;4953639;28;20058;-70
2022/05/07 01:05:20;;;;;;;21.25;17.85;;;;;;;15.27;74.68;101708.06;4953311;28;20164;-70
2022/05/07 01:07:47;;;;;;;23.73;18.00;;;;;;;15.27;74.49;101702.78;4953594;28;20051;-63
2022/05/07 01:10:13;;;;;;;24.52;17.83;;;;;;;15.26;74.34;101706.38;4953753;28;20051;-62
2022/05/07 01:12:41;;;;;;;23.75;19.10;;;;;;;15.25;74.72;101702.03;4952739;28;20054;-70
2022/05/07 01:15:08;;;;;;;21.05;17.85;;;;;;;15.27;74.72;101704.56;4953527;28;20043;-63
2022/05/07 01:17:35;;;;;;;23.92;19.35;;;;;;;15.27;74.38;101699.28;4953587;28;20503;-65
2022/05/07 01:20:05;;;;;;;23.58;19.08;;;;;;;15.27;74.36;101696.66;4952950;28;20543;-70
2022/05/07 01:22:32;;;;;;;22.35;18.42;;;;;;;15.26;74.50;101695.81;4953443;28;20055;-61
2022/05/07 01:24:59;;;;;;;24.10;18.67;;;;;;;15.26;74.36;101693.16;4956107;28;20047;-70
2022/05/07 01:27:25;;;;;;;24.48;19.52;;;;;;;15.24;74.86;101691.56;4955685;28;20047;-71
2022/05/07 01:29:52;;;;;;;23.65;18.83;;;;;;;15.23;74.69;101690.69;4956889;28;20051;-62
2022/05/07 01:32:19;;;;;;;22.98;18.45;;;;;;;15.24;74.59;101686.28;4959787;28;20054;-67
2022/05/07 01:34:45;;;;;;;23.83;18.83;;;;;;;15.24;74.40;101689.75;4952872;28;20047;-61
2022/05/07 01:37:12;;;;;;;22.33;18.60;;;;;;;15.25;74.72;101687.94;4956924;28;20047;-70
2022/05/07 01:39:39;;;;;;;26.00;20.38;;;;;;;15.24;74.37;101683.63;4956694;28;20054;-61
2022/05/07 01:42:05;;;;;;;24.33;19.80;;;;;;;15.22;74.75;101683.69;4956643;28;20043;-70
2022/05/07 01:44:33;;;;;;;26.45;20.95;;;;;;;15.19;74.48;101682.09;4955412;28;20047;-70
2022/05/07 01:49:45;;;;;;;25.23;20.98;;;;;;;15.20;74.75;101690.88;4956734;29;20051;-69
2022/05/07 01:52:12;;;;;;;24.35;19.73;;;;;;;15.20;74.75;101688.25;4956180;28;20094;-66
2022/05/07 01:54:39;;;;;;;25.65;20.10;;;;;;;15.20;74.55;101693.53;4956542;28;20102;-70
2022/05/07 01:57:06;;;;;;;25.58;21.48;;;;;;;15.21;74.74;101692.59;4956392;28;20047;-66
2022/05/07 01:59:32;;;;;;;27.55;21.95;;;;;;;15.19;74.85;101691.81;4962117;28;20106;-70
2022/05/07 02:01:59;;;;;;;26.52;21.42;;;;;;;15.18;74.70;101683.06;4954994;28;20059;-70
2022/05/07 02:04:26;;;;;;;25.63;20.35;;;;;;;15.18;75.10;101692.75;4956162;28;20055;-60
2022/05/07 02:06:53;;;;;;;27.25;21.42;;;;;;;15.17;75.08;101689.28;4956112;28;20098;-61
2022/05/07 02:09:19;;;;;;;27.17;21.88;;;;;;;15.17;75.11;101691.06;4956103;28;20047;-70
2022/05/07 02:11:46;;;;;;;25.35;20.00;;;;;;;15.17;74.93;101685.78;4956267;28;20491;-62
2022/05/07 02:14:12;;;;;;;28.48;22.15;;;;;;;15.16;74.96;101690.22;4956246;28;20047;-70
2022/05/07 02:16:39;;;;;;;28.15;21.77;;;;;;;15.17;75.07;101683.13;4956199;28;20058;-61
2022/05/07 02:19:06;;;;;;;30.98;22.20;;;;;;;15.16;75.32;101684.06;4954893;28;20074;-62
2022/05/07 02:21:32;;;;;;;28.42;21.95;;;;;;;15.14;75.19;101684.16;4955373;28;20508;-70
2022/05/07 02:23:59;;;;;;;26.80;21.63;;;;;;;15.15;75.20;101685.03;4956061;28;20444;-61
2022/05/07 02:26:26;;;;;;;27.02;22.10;;;;;;;15.14;74.96;101684.16;4955764;28;20551;-63
2022/05/07 02:28:52;;;;;;;28.40;21.92;;;;;;;15.13;74.78;101687.75;4956076;28;20043;-70
2022/05/07 02:31:19;;;;;;;27.63;21.52;;;;;;;15.13;74.92;101681.63;4955621;28;20456;-61
2022/05/07 02:33:46;;;;;;;26.42;21.48;;;;;;;15.12;74.69;101688.72;4955935;28;20054;-69
2022/05/07 02:36:12;;;;;;;28.08;20.77;;;;;;;15.12;75.01;101679.91;4953686;28;20044;-70
2022/05/07 02:38:40;;;;;;;25.60;20.60;;;;;;;15.12;75.12;101682.56;4955392;28;20051;-67
2022/05/07 02:43:52;;;;;;;25.73;20.60;;;;;;;15.12;74.76;101680.78;4955772;29;20047;-70
2022/05/07 02:46:18;;;;;;;25.67;20.27;;;;;;;15.12;74.98;101675.50;4955877;28;20051;-66
2022/05/07 02:48:46;;;;;;;26.52;20.25;;;;;;;15.12;75.04;101675.50;4955491;28;20122;-68
2022/05/07 02:51:13;;;;;;;26.65;21.42;;;;;;;15.12;74.81;101678.13;4955295;28;20110;-68
2022/05/07 02:53:40;;;;;;;26.95;21.05;;;;;;;15.12;75.30;101672.84;4954324;28;20050;-63
2022/05/07 02:56:07;;;;;;;24.02;19.42;;;;;;;15.12;75.09;101671.97;4955328;28;20456;-62
2022/05/07 02:58:33;;;;;;;29.02;22.20;;;;;;;15.12;75.32;101670.22;4955165;28;20066;-69
2022/05/07 03:01:01;;;;;;;26.52;21.33;;;;;;;15.11;75.10;101671.16;4955253;28;20048;-68
2022/05/07 03:03:27;;;;;;;27.35;20.83;;;;;;;15.12;74.91;101666.69;4951367;28;20043;-61
2022/05/07 03:05:55;;;;;;;28.05;21.15;;;;;;;15.11;75.13;101663.22;4951787;28;20055;-70
2022/05/07 03:08:23;;;;;;;26.05;21.35;;;;;;;15.12;75.22;101671.97;4950736;28;20122;-61
2022/05/07 03:10:50;;;;;;;27.98;22.15;;;;;;;15.11;75.09;101668.50;4951890;28;20048;-70
2022/05/07 03:13:17;;;;;;;26.52;21.25;;;;;;;15.09;75.09;101662.44;4951429;28;20508;-62
2022/05/07 03:15:44;;;;;;;28.23;22.17;;;;;;;15.07;75.07;101659.06;4951823;28;20575;-69
2022/05/07 03:18:12;;;;;;;26.70;22.17;;;;;;;15.07;74.94;101652.91;4951651;28;20496;-66
2022/05/07 03:20:40;;;;;;;29.05;21.70;;;;;;;15.06;75.07;101662.66;4951418;28;20062;-68
2022/05/07 03:23:07;;;;;;;25.48;21.05;;;;;;;15.05;75.34;101655.66;4951632;28;20480;-62
2022/05/07 03:25:34;;;;;;;28.85;21.67;;;;;;;15.05;75.19;101655.66;4950348;28;20047;-61
2022/05/07 03:28:00;;;;;;;26.80;22.00;;;;;;;15.03;75.01;101657.53;4951891;28;20058;-68
2022/05/07 03:30:27;;;;;;;27.58;21.63;;;;;;;15.02;75.19;101658.50;4951717;28;20066;-69
2022/05/07 03:32:54;;;;;;;29.10;23.02;;;;;;;15.02;75.21;101658.50;4951527;28;20051;-64
2022/05/07 03:35:21;;;;;;;28.10;21.73;;;;;;;15.00;75.42;101658.56;4951250;28;20046;-70
2022/05/07 03:37:47;;;;;;;26.27;21.15;;;;;;;15.00;75.28;101658.56;4951498;28;20070;-61
2022/05/07 03:40:14;;;;;;;26.33;21.60;;;;;;;15.01;75.48;101657.63;4951362;28;20126;-65
2022/05/07 03:42:43;;;;;;;27.67;21.67;;;;;;;15.00;75.40;101658.56;4950267;28;20509;-61
2022/05/07 03:45:10;;;;;;;25.77;20.95;;;;;;;15.01;75.37;101655.00;4951330;28;20408;-61
2022/05/07 03:47:37;;;;;;;29.02;22.15;;;;;;;15.00;75.30;101657.72;4950787;28;20058;-62
2022/05/07 03:50:04;;;;;;;25.50;21.40;;;;;;;14.98;75.20;101657.84;4950973;28;20393;-61
2022/05/07 03:55:16;;;;;;;24.55;19.38;;;;;;;14.98;75.16;101655.19;4951024;28;20427;-64
2022/05/07 03:57:43;;;;;;;28.92;20.80;;;;;;;14.99;75.30;101656.03;4951184;28;20051;-70
2022/05/07 04:00:10;;;;;;;27.23;21.30;;;;;;;14.98;75.38;101659.59;4949859;28;20456;-61
2022/05/07 04:02:37;;;;;;;28.58;21.60;;;;;;;14.97;75.52;101661.41;4951056;28;20059;-61
2022/05/07 04:05:04;;;;;;;27.10;21.63;;;;;;;14.97;75.30;101655.25;4950817;28;20102;-61
2022/05/07 04:07:31;;;;;;;25.58;20.55;;;;;;;14.97;75.57;101657.91;4950888;28;20074;-70
2022/05/07 04:09:57;;;;;;;27.83;21.45;;;;;;;14.96;75.64;101656.22;4951139;28;20487;-62
2022/05/07 04:12:25;;;;;;;25.63;20.27;;;;;;;14.96;75.61;101664.16;4951058;28;20507;-62
2022/05/07 04:14:51;;;;;;;24.65;20.10;;;;;;;14.96;75.40;101656.22;4949814;28;20043;-61
2022/05/07 04:17:18;;;;;;;26.77;20.52;;;;;;;14.96;75.39;101658.88;4950804;28;20051;-61
2022/05/07 04:19:45;;;;;;;25.45;19.38;;;;;;;14.98;75.49;101662.25;4950682;28;20098;-62
2022/05/07 04:22:12;;;;;;;24.60;19.38;;;;;;;14.98;75.40;101663.13;4950354;28;20063;-68
2022/05/07 04:24:38;;;;;;;23.38;19.88;;;;;;;14.99;75.62;101664.78;4950747;28;20055;-70
2022/05/07 04:27:05;;;;;;;25.23;20.48;;;;;;;14.99;75.68;101663.97;4950819;28;20046;-62
2022/05/07 04:29:32;;;;;;;25.90;19.95;;;;;;;14.99;75.71;101661.31;4950785;28;20051;-69
2022/05/07 04:31:58;;;;;;;23.88;18.63;;;;;;;14.99;75.49;101663.97;4949875;28;20496;-61
2022/05/07 04:34:28;;;;;;;24.55;19.77;;;;;;;14.98;75.69;101665.75;4950889;28;20055;-66
2022/05/07 04:36:55;;;;;;;24.85;19.52;;;;;;;14.99;75.47;101671.88;4950579;28;20126;-68
2022/05/07 04:39:22;;;;;;;23.23;18.27;;;;;;;15.01;75.59;101672.66;4950540;28;20051;-61
2022/05/07 04:41:48;;;;;;;26.70;18.85;;;;;;;15.02;75.43;101669.06;4950371;28;20048;-62
2022/05/07 04:44:15;;;;;;;23.67;16.60;;;;;;;15.02;75.75;101669.91;4950734;28;20421;-66
2022/05/07 04:46:42;;;;;;;20.85;16.85;;;;;;;15.02;75.89;101663.78;4950282;28;20385;-70
2022/05/07 04:49:08;;;;;;;19.33;16.23;;;;;;;15.03;75.74;101668.09;4949586;28;20043;-62
2022/05/07 04:51:35;;;;;;;19.60;16.17;;;;;;;15.02;75.88;101672.56;4950083;28;20491;-69
2022/05/07 04:54:07;;;;;;;18.85;15.55;;;;;;;15.04;75.70;101668.97;4950493;28;20043;-61
2022/05/07 04:56:34;;;;;;;17.73;14.30;;;;;;;15.05;75.75;101676.81;4950371;28;20159;-62
2022/05/07 04:59:01;;;;;;;10.52;6.75;;;;;;;15.29;76.04;101679.75;4951878;28;20082;-65
2022/05/07 05:01:27;;;;;;;18.13;13.15;;;;;;;15.30;75.81;101677.94;4954048;28;20051;-66
2022/05/07 05:03:54;;;;;;;16.40;11.95;;;;;;;15.21;76.03;101674.09;4953248;28;20071;-61
2022/05/07 05:06:21;;;;;;;14.30;10.80;;;;;;;15.18;76.16;101674.25;4953647;28;20051;-68
2022/05/07 05:08:48;;;;;;;13.57;10.85;;;;;;;15.15;76.11;101677.94;4957833;28;20293;-65
2022/05/07 05:11:14;;;;;;;12.98;10.27;;;;;;;15.15;75.82;101685.03;4953920;28;20062;-69
2022/05/07 05:13:41;;;;;;;14.65;10.02;;;;;;;15.12;75.83;101678.13;4954123;28;20050;-62
2022/05/07 05:16:08;;;;;;;14.30;10.20;;;;;;;15.14;75.97;101684.16;4953747;28;20078;-62
2022/05/07 05:18:34;;;;;;;12.60;10.13;;;;;;;15.12;75.57;101685.19;4952694;28;20090;-64
2022/05/07 05:21:13;;;;;;;15.43;9.52;;;;;;;15.11;75.74;101679.06;4953604;28;20475;-68
2022/05/07 05:23:46;;;;;;;14.65;10.48;;;;;;;15.11;75.80;101687.00;4942067;29;20094;-69
2022/05/07 05:26:13;;;;;;;11.73;9.15;;;;;;;15.11;75.56;101687.00;4953609;28;20055;-68
2022/05/07 05:28:42;;;;;;;11.38;8.90;;;;;;;15.13;75.74;101692.19;4953847;28;20051;-69
2022/05/07 05:31:10;;;;;;;12.23;9.13;;;;;;;15.12;75.57;101688.72;4953753;28;20058;-65
2022/05/07 05:33:36;;;;;;;12.18;9.65;;;;;;;15.14;75.59;101692.09;4953330;28;20051;-69
2022/05/07 05:36:03;;;;;;;11.15;8.70;;;;;;;15.14;75.59;101700.03;4953020;28;20047;-63
2022/05/07 05:38:30;;;;;;;12.95;8.90;;;;;;;15.14;75.45;101694.75;4953198;28;20102;-64
2022/05/07 05:40:57;;;;;;;11.10;8.68;;;;;;;15.15;75.60;101693.81;4953606;28;20058;-61
2022/05/07 05:43:24;;;;;;;12.77;9.55;;;;;;;15.16;75.29;101700.78;4953179;28;20110;-61
2022/05/07 05:45:50;;;;;;;11.65;8.95;;;;;;;15.16;75.28;101706.09;4953755;28;20058;-62
2022/05/07 05:48:17;;;;;;;10.88;8.20;;;;;;;15.15;75.68;101699.09;4953359;28;20063;-63
2022/05/07 05:50:44;;;;;;;10.85;8.32;;;;;;;15.16;75.32;101698.16;4951942;28;20051;-62
2022/05/07 05:53:11;;;;;;;11.90;7.50;;;;;;;15.17;75.58;101702.50;4953308;28;20059;-63
2022/05/07 05:55:38;;;;;;;9.85;8.32;;;;;;;15.18;75.51;101698.91;4953027;28;20051;-70
2022/05/07 05:58:04;;;;;;;9.75;8.63;;;;;;;15.19;75.32;101697.94;4953284;28;20047;-62
2022/05/07 06:00:31;;;;;;;11.68;8.05;;;;;;;15.19;75.19;101705.88;4952862;28;20055;-69
2022/05/07 06:02:58;;;;;;;10.25;8.18;;;;;;;15.19;75.36;101708.53;4943080;28;20044;-62
2022/05/07 06:05:25;;;;;;;9.40;7.55;;;;;;;15.22;75.43;101699.56;4952930;28;20058;-62
2022/05/07 06:07:51;;;;;;;12.65;8.32;;;;;;;15.23;75.23;101703.06;4951818;28;20047;-62
2022/05/07 06:10:18;;;;;;;9.95;7.85;;;;;;;15.23;75.29;101711.00;4952800;28;20413;-70
2022/05/07 06:12:45;;;;;;;7.18;5.18;;;;;;;15.39;75.64;101702.97;4952890;28;20047;-72
2022/05/07 06:15:12;;;;;;;13.38;7.53;;;;;;;15.50;74.90;101717.25;4949508;28;20109;-60
2022/05/07 06:17:38;;;;;;;10.43;8.40;;;;;;;15.43;75.30;101713.28;4949928;28;20055;-61
2022/05/07 06:20:06;;;;;;;10.07;7.93;;;;;;;15.38;75.63;101707.41;4939329;28;20447;-60
2022/05/07 06:22:34;;;;;;;10.05;7.85;;;;;;;15.34;75.60;101712.03;4951287;28;20047;-59
2022/05/07 06:27:45;;;;;;;14.52;8.25;;;;;;;15.31;75.62;101714.88;4949192;28;20504;-60
2022/05/07 06:30:12;;;;;;;9.73;7.75;;;;;;;15.28;75.51;101712.41;4951087;29;20047;-61
2022/05/07 06:32:42;;;;;;;12.43;7.88;;;;;;;15.29;75.20;101716.75;4952313;28;20484;-60
2022/05/07 06:35:10;;;;;;;15.15;8.02;;;;;;;15.28;75.20;101723.00;4952676;28;20106;-60
2022/05/07 06:37:39;;;;;;;15.07;8.93;;;;;;;15.29;75.48;101723.84;4952356;28;20066;-60
2022/05/07 06:40:07;;;;;;;11.63;8.15;;;;;;;15.28;75.31;101723.00;4952576;28;20460;-60
2022/05/07 06:42:35;;;;;;;12.80;7.70;;;;;;;15.25;75.39;101722.31;4950987;28;20059;-61
2022/05/07 06:45:03;;;;;;;11.85;8.43;;;;;;;15.25;75.01;101725.84;4949666;28;20047;-64
2022/05/07 06:47:31;;;;;;;13.48;7.95;;;;;;;15.25;75.00;101725.84;4940314;28;20424;-59
2022/05/07 06:49:58;;;;;;;7.93;6.68;;;;;;;15.27;75.22;101721.28;4945422;29;20496;-66
2022/05/07 06:52:27;;;;;;;11.48;6.95;;;;;;;15.26;75.01;101722.25;4944192;28;20047;-60
2022/05/07 06:54:54;;;;;;;9.63;7.20;;;;;;;15.27;75.17;101728.38;4948030;28;20047;-58
2022/05/07 06:57:23;;;;;;;8.68;6.95;;;;;;;15.27;74.99;101721.28;4939831;28;20493;-59
2022/05/07 06:59:50;;;;;;;8.23;6.10;;;;;;;15.26;75.11;101722.25;4943119;29;20066;-61
2022/05/07 07:02:17;;;;;;;8.13;6.68;;;;;;;15.27;75.27;101726.56;4947244;28;20095;-60
2022/05/07 07:04:43;;;;;;;22.90;7.40;;;;;;;15.52;75.13;101725.09;4939690;29;20404;-63
2022/05/07 07:07:10;;;;;;;11.10;6.13;;;;;;;15.65;74.13;101730.47;4948977;29;20055;-63
2022/05/07 07:09:37;;;;;;;9.70;6.20;;;;;;;15.52;74.51;101731.22;4947265;28;20047;-59
2022/05/07 07:12:06;;;;;;;10.60;6.00;;;;;;;15.47;74.87;101733.28;4950382;28;20106;-59
2022/05/07 07:14:33;;;;;;;7.95;5.70;;;;;;;15.44;74.52;101732.63;4946912;28;20098;-62
2022/05/07 07:17:00;;;;;;;6.93;5.65;;;;;;;15.41;74.72;101728.38;4947983;28;20073;-61
2022/05/07 07:19:27;;;;;;;7.63;5.90;;;;;;;15.41;74.85;101736.31;4940977;29;20084;-59
2022/05/07 07:21:54;;;;;;;7.90;5.72;;;;;;;15.41;74.50;101730.19;4950618;28;20059;-69
2022/05/07 07:24:21;;;;;;;8.00;6.53;;;;;;;15.42;74.49;101730.06;4948952;28;20491;-62
2022/05/07 07:26:48;;;;;;;12.50;6.07;;;;;;;15.42;74.42;101721.31;4951341;28;20110;-59
2022/05/07 07:29:14;;;;;;;7.35;5.82;;;;;;;15.39;74.78;101732.94;4951344;28;20047;-58
2022/05/07 07:31:41;;;;;;;7.93;6.35;;;;;;;15.39;74.65;101732.06;4951011;28;20467;-66
2022/05/07 07:34:08;;;;;;;9.35;5.93;;;;;;;15.41;74.61;101735.47;4951246;28;20051;-69
2022/05/07 07:36:35;;;;;;;9.77;6.10;;;;;;;15.43;74.66;101734.44;4949559;28;21229;-71
2022/05/07 07:39:07;;;;;;;8.25;5.93;;;;;;;15.42;74.83;101735.38;4949582;28;20094;-68
2022/05/07 07:41:34;;;;;;;10.02;6.13;;;;;;;15.44;74.93;101730.84;4940266;28;20047;-63
2022/05/07 07:44:01;;;;;;;11.65;7.55;;;;;;;15.46;74.75;101741.31;4950084;28;20043;-68
2022/05/07 07:49:17;;;;;;;11.93;5.82;;;;;;;15.73;75.23;101735.25;4947177;28;20138;-58
2022/05/07 07:51:43;;;;;;;9.10;5.78;;;;;;;16.05;74.01;101741.22;4947689;28;20078;-59
2022/05/07 07:54:11;;;;;;;14.20;6.13;;;;;;;16.29;74.18;101736.13;4946687;28;20404;-59
2022/05/07 07:56:38;;;;;;;9.82;6.72;;;;;;;16.22;73.80;101741.94;4938445;28;20047;-60
2022/05/07 07:59:04;;;;;;;8.32;6.50;;;;;;;16.04;74.40;101749.25;4947828;29;20047;-59
2022/05/07 08:01:31;;;;;;;13.23;7.53;;;;;;;15.93;74.37;101750.75;4930589;29;20247;-66
2022/05/07 08:03:58;;;;;;;9.20;7.05;;;;;;;15.85;74.58;101744.28;4937799;29;20510;-60
2022/05/07 08:06:25;;;;;;;9.43;5.93;;;;;;;15.79;74.74;101746.31;4936585;29;20050;-60
2022/05/07 08:11:40;;;;;;;9.82;6.55;;;;;;;15.74;75.05;101744.91;4936590;29;20051;-59
2022/05/07 08:14:15;;;;;;;9.48;7.07;;;;;;;15.74;74.83;101752.84;4937278;29;20543;-61
2022/05/07 08:16:43;;;;;;;11.50;6.88;;;;;;;15.75;74.59;101754.56;4936120;28;20523;-60
2022/05/07 08:19:11;;;;;;;11.48;7.38;;;;;;;15.71;74.69;101753.06;4945438;28;20040;-71
2022/05/07 08:21:38;;;;;;;8.75;6.80;;;;;;;15.71;74.74;101753.06;4937675;29;20055;-59
2022/05/07 08:24:05;;;;;;;9.38;6.90;;;;;;;15.69;74.82;101753.13;4945487;28;20408;-63
2022/05/07 08:26:32;;;;;;;8.50;6.82;;;;;;;15.70;74.99;101751.34;4949427;28;20047;-61
2022/05/07 08:28:58;;;;;;;9.85;6.63;;;;;;;15.73;74.81;101751.13;4947456;28;20561;-59
2022/05/07 08:31:26;;;;;;;8.43;6.43;;;;;;;15.70;75.05;101751.34;4948769;28;20054;-62
2022/05/07 08:33:54;;;;;;;7.68;6.30;;;;;;;15.72;75.17;101752.94;4950332;28;20098;-61
2022/05/07 08:36:21;;;;;;;7.80;6.13;;;;;;;15.72;74.87;101750.31;4953726;28;20497;-71
2022/05/07 08:38:48;;;;;;;9.23;6.65;;;;;;;15.74;74.51;101753.69;4940003;29;20051;-60
2022/05/07 08:41:15;;;;;;;7.82;6.32;;;;;;;15.75;74.86;101751.91;4944464;28;20062;-60
2022/05/07 08:43:42;;;;;;;8.43;6.93;;;;;;;15.75;74.46;101763.34;4940166;29;20493;-63
2022/05/07 08:46:10;;;;;;;10.63;6.70;;;;;;;15.73;74.31;101754.66;4950137;29;20408;-61
2022/05/07 08:48:47;;;;;;;9.93;6.50;;;;;;;15.77;74.36;101761.44;4954091;28;20051;-71
2022/05/07 08:51:17;;;;;;;7.78;5.97;;;;;;;15.83;74.08;101761.09;4954030;28;20488;-62
2022/05/07 08:53:44;;;;;;;8.48;7.15;;;;;;;15.83;74.00;101763.75;4953050;28;20055;-74
2022/05/07 08:56:12;;;;;;;11.00;6.93;;;;;;;15.85;74.33;101765.47;4954171;28;20075;-72
2022/05/07 08:58:46;;;;;;;7.68;6.38;;;;;;;15.84;74.12;101761.94;4953702;28;20051;-61
2022/05/07 09:01:12;;;;;;;9.05;5.80;;;;;;;15.82;74.32;101754.09;4954140;28;20451;-72
2022/05/07 09:03:45;;;;;;;8.32;6.28;;;;;;;15.87;74.04;101755.59;4953715;28;20055;-61
2022/05/07 09:06:30;;;;;;;7.15;6.18;;;;;;;15.90;74.09;101758.91;4953833;28;20126;-73
2022/05/07 09:08:56;;;;;;;7.57;6.32;;;;;;;15.93;73.85;101755.22;4954145;28;20098;-69
2022/05/07 09:11:24;;;;;;;8.60;6.60;;;;;;;15.96;73.99;101760.31;4953056;28;20125;-61
2022/05/07 09:14:04;;;;;;;9.38;6.40;;;;;;;16.00;74.29;101759.19;4954273;28;20047;-71
2022/05/07 09:16:42;;;;;;;12.00;7.60;;;;;;;16.04;73.93;101751.91;4953810;28;20109;-60
2022/05/07 09:19:27;;;;;;;10.70;7.07;;;;;;;16.04;73.93;101754.56;4954052;28;20050;-60
2022/05/07 09:22:07;;;;;;;9.02;7.22;;;;;;;16.07;73.80;101754.34;4948104;28;20052;-69
2022/05/07 09:24:34;;;;;;;10.25;7.40;;;;;;;16.07;73.88;101749.88;4948215;28;20081;-72
2022/05/07 09:27:03;;;;;;;9.50;6.57;;;;;;;16.06;73.64;101755.28;4953406;28;20051;-63
2022/05/07 09:29:31;;;;;;;8.68;7.10;;;;;;;16.07;73.67;101754.34;4949811;28;20047;-61
2022/05/07 09:32:14;;;;;;;9.52;7.22;;;;;;;16.08;74.01;101756.88;4943186;28;20047;-59
2022/05/07 09:37:36;;;;;;;14.50;4.72;;;;;;;16.38;73.83;101757.66;4953403;28;20126;-73
2022/05/07 09:40:09;;;;;;;7.70;6.90;;;;;;;16.39;73.52;101751.41;4953308;28;20047;-68
2022/05/07 09:42:36;;;;;;;10.60;6.80;;;;;;;16.35;73.98;101755.22;4953158;28;20058;-60
2022/05/07 09:45:03;;;;;;;10.73;7.28;;;;;;;16.33;73.69;101747.38;4952006;28;20105;-61
2022/05/07 09:47:31;;;;;;;9.35;7.32;;;;;;;16.35;73.74;101750.75;4951666;28;20510;-61
2022/05/07 09:58:20;;;;;;;8.27;6.82;;;;;;;16.37;73.49;101742.75;4945877;29;20160;-69
2022/05/07 10:01:09;;;;;;;8.32;5.90;;;;;;;16.41;73.44;101738.94;4952564;28;20039;-61
2022/05/07 10:03:54;;;;;;;7.82;5.60;;;;;;;16.40;73.75;101726.63;4947459;29;20146;-62
2022/05/07 10:07:02;;;;;;;7.35;5.90;;;;;;;16.45;73.75;101737.78;4951835;29;20511;-60
2022/05/07 10:10:02;;;;;;;8.07;6.88;;;;;;;16.46;73.45;101734.19;4929545;29;20504;-66
2022/05/07 10:12:30;;;;;;;17.65;4.70;;;;;;;16.71;73.08;101730.75;4920160;29;20067;-64
2022/05/07 10:15:09;;;;;;;16.25;4.70;;;;;;;16.94;72.93;101731.03;4937443;29;20090;-61
2022/05/07 10:17:35;;;;;;;14.02;4.80;;;;;;;17.05;72.21;101720.56;4952789;28;20130;-59
2022/05/07 10:20:08;;;;;;;13.63;4.90;;;;;;;17.16;72.55;101722.44;4952686;28;20484;-61
2022/05/07 10:22:35;;;;;;;8.80;5.00;;;;;;;17.26;72.33;101720.03;4951937;28;20051;-66
2022/05/07 10:25:09;;;;;;;13.60;6.20;;;;;;;17.31;72.35;101712.59;4952883;28;20039;-60
2022/05/07 10:27:42;;;;;;;8.25;6.82;;;;;;;17.19;72.11;101714.28;4950840;28;20102;-60
2022/05/07 10:30:13;;;;;;;7.60;6.78;;;;;;;17.04;72.55;101718.84;4945231;29;20071;-70
2022/05/07 10:32:57;;;;;;;7.88;7.07;;;;;;;16.96;72.44;101711.41;4943746;28;20055;-59
2022/05/07 10:36:05;;;;;;;7.97;7.05;;;;;;;16.90;73.06;101711.81;4951554;28;20522;-59
2022/05/07 10:38:37;;;;;;;7.60;6.90;;;;;;;16.84;72.70;101706.91;4936437;28;20083;-59
2022/05/07 10:41:07;;;;;;;8.82;7.40;;;;;;;16.80;72.76;101706.25;4942450;29;20102;-71
2022/05/07 10:43:38;;;;;;;9.13;7.03;;;;;;;16.79;73.17;101714.31;4943035;29;20102;-69
2022/05/07 10:46:16;;;;;;;9.93;7.93;;;;;;;16.77;73.25;101702.97;4951354;28;20043;-60
2022/05/07 10:48:46;;;;;;;10.30;8.55;;;;;;;16.76;73.37;101710.09;4943563;28;20051;-60
2022/05/07 10:51:28;;;;;;;10.40;8.35;;;;;;;16.77;72.96;101705.63;4943635;28;20484;-60
2022/05/07 10:54:03;;;;;;;9.70;8.15;;;;;;;16.75;73.45;101692.47;4955317;28;20054;-59
2022/05/07 10:56:32;;;;;;;9.50;8.50;;;;;;;16.78;73.50;101691.41;4950766;28;20082;-67
2022/05/07 10:59:00;;;;;;;11.45;8.57;;;;;;;16.80;73.17;101692.19;4953449;28;20445;-60
2022/05/07 11:01:29;;;;;;;11.75;9.02;;;;;;;16.84;73.03;101690.16;4947407;28;20039;-60
2022/05/07 11:04:08;;;;;;;10.15;8.32;;;;;;;16.83;73.30;101681.34;4947659;28;20583;-59
2022/05/07 11:06:43;;;;;;;10.82;8.75;;;;;;;16.86;73.19;101682.94;4950247;28;20047;-60
2022/05/07 11:09:23;;;;;;;12.90;9.35;;;;;;;16.89;73.18;101682.75;4951642;28;20055;-60
2022/05/07 11:11:55;;;;;;;10.00;8.52;;;;;;;16.87;73.24;101674.88;4946873;29;20051;-60
2022/05/07 11:14:28;;;;;;;11.45;9.02;;;;;;;16.84;73.61;101676.91;4950853;28;20047;-61
2022/05/07 11:16:56;;;;;;;10.63;9.18;;;;;;;16.87;73.45;101674.88;4951572;28;20047;-60
2022/05/07 11:19:27;;;;;;;11.82;8.95;;;;;;;16.88;73.48;101679.22;4951418;28;20587;-61
2022/05/07 11:21:56;;;;;;;10.32;8.60;;;;;;;16.89;73.35;101667.69;4951235;28;20058;-60
2022/05/07 11:24:25;;;;;;;10.40;8.90;;;;;;;16.89;73.49;101662.38;4951386;28;20109;-61
2022/05/07 11:27:02;;;;;;;13.18;9.23;;;;;;;16.92;73.60;101669.31;4950486;28;20134;-60
2022/05/07 11:29:30;;;;;;;10.45;8.88;;;;;;;16.93;73.45;101668.34;4951544;28;20083;-59
2022/05/07 11:32:07;;;;;;;11.43;9.48;;;;;;;16.95;73.37;101669.06;4951670;28;20047;-61
2022/05/07 11:34:37;;;;;;;11.82;9.63;;;;;;;16.95;73.38;101658.47;4951692;28;20058;-60
2022/05/07 11:37:15;;;;;;;11.00;9.93;;;;;;;16.97;73.50;101660.06;4951341;28;20074;-60
2022/05/07 11:39:58;;;;;;;11.23;10.07;;;;;;;16.98;72.98;101656.47;4951276;28;20063;-60
2022/05/07 11:42:40;;;;;;;24.88;13.05;;;;;;;17.28;73.19;101657.06;4949797;28;20079;-61
2022/05/07 11:45:29;;;;;;;12.20;10.20;;;;;;;17.32;72.89;101650.63;4950923;28;20043;-60
2022/05/07 11:48:03;;;;;;;11.05;9.50;;;;;;;17.29;72.79;101646.38;4951264;28;20048;-61
2022/05/07 11:50:42;;;;;;;10.50;9.40;;;;;;;17.32;72.77;101650.63;4950754;28;20051;-59
2022/05/07 11:53:12;;;;;;;11.68;10.45;;;;;;;17.31;72.68;101643.59;4951288;28;20055;-60